sensor_id;sensor_type;location;lat;lon;timestamp;P1;durP1;ratioP1;P2;durP2;ratioP2
908;SDS011;441;51.192;6.788;2023-08-20T00:00:10;32.80;;;30.80;;
908;SDS011;441;51.192;6.788;2023-08-20T00:02:39;33.03;;;31.13;;
908;SDS011;441;51.192;6.788;2023-08-20T00:05:08;33.87;;;31.83;;
908;SDS011;441;51.192;6.788;2023-08-20T00:07:36;32.33;;;30.43;;
908;SDS011;441;51.192;6.788;2023-08-20T00:10:03;32.67;;;30.77;;
908;SDS011;441;51.192;6.788;2023-08-20T00:12:32;32.60;;;30.70;;
908;SDS011;441;51.192;6.788;2023-08-20T00:15:00;31.97;;;29.90;;
908;SDS011;441;51.192;6.788;2023-08-20T00:17:31;33.37;;;31.27;;
908;SDS011;441;51.192;6.788;2023-08-20T00:19:58;32.30;;;30.50;;
908;SDS011;441;51.192;6.788;2023-08-20T00:22:26;33.33;;;31.47;;
908;SDS011;441;51.192;6.788;2023-08-20T00:24:53;34.00;;;31.93;;
908;SDS011;441;51.192;6.788;2023-08-20T00:27:21;33.33;;;31.23;;
908;SDS011;441;51.192;6.788;2023-08-20T00:29:49;33.67;;;31.73;;
908;SDS011;441;51.192;6.788;2023-08-20T00:32:16;32.87;;;30.97;;
908;SDS011;441;51.192;6.788;2023-08-20T00:34:43;33.63;;;31.63;;
908;SDS011;441;51.192;6.788;2023-08-20T00:37:10;33.83;;;31.90;;
908;SDS011;441;51.192;6.788;2023-08-20T00:39:37;32.77;;;30.87;;
908;SDS011;441;51.192;6.788;2023-08-20T00:42:04;32.83;;;30.83;;
908;SDS011;441;51.192;6.788;2023-08-20T00:44:32;35.57;;;33.47;;
908;SDS011;441;51.192;6.788;2023-08-20T00:47:01;33.63;;;31.73;;
908;SDS011;441;51.192;6.788;2023-08-20T00:49:28;34.57;;;32.30;;
908;SDS011;441;51.192;6.788;2023-08-20T00:51:56;32.20;;;30.40;;
908;SDS011;441;51.192;6.788;2023-08-20T00:54:23;33.50;;;31.60;;
908;SDS011;441;51.192;6.788;2023-08-20T00:56:51;32.13;;;30.00;;
908;SDS011;441;51.192;6.788;2023-08-20T00:59:18;32.57;;;30.67;;
908;SDS011;441;51.192;6.788;2023-08-20T01:01:46;32.37;;;30.37;;
908;SDS011;441;51.192;6.788;2023-08-20T01:04:14;31.17;;;29.27;;
908;SDS011;441;51.192;6.788;2023-08-20T01:06:44;31.60;;;29.80;;
908;SDS011;441;51.192;6.788;2023-08-20T01:09:19;32.33;;;30.23;;
908;SDS011;441;51.192;6.788;2023-08-20T01:11:55;33.50;;;31.20;;
908;SDS011;441;51.192;6.788;2023-08-20T01:14:25;33.17;;;31.13;;
908;SDS011;441;51.192;6.788;2023-08-20T01:16:52;31.07;;;29.23;;
908;SDS011;441;51.192;6.788;2023-08-20T01:19:21;31.73;;;29.83;;
908;SDS011;441;51.192;6.788;2023-08-20T01:21:54;32.83;;;30.20;;
908;SDS011;441;51.192;6.788;2023-08-20T01:24:37;31.33;;;29.53;;
908;SDS011;441;51.192;6.788;2023-08-20T01:27:17;32.47;;;30.27;;
908;SDS011;441;51.192;6.788;2023-08-20T01:29:54;33.83;;;31.93;;
908;SDS011;441;51.192;6.788;2023-08-20T01:32:22;33.23;;;31.33;;
908;SDS011;441;51.192;6.788;2023-08-20T01:34:50;34.90;;;32.30;;
908;SDS011;441;51.192;6.788;2023-08-20T01:37:18;34.87;;;32.43;;
908;SDS011;441;51.192;6.788;2023-08-20T01:39:45;32.50;;;30.47;;
908;SDS011;441;51.192;6.788;2023-08-20T01:42:12;32.70;;;30.80;;
908;SDS011;441;51.192;6.788;2023-08-20T01:44:39;33.00;;;31.00;;
908;SDS011;441;51.192;6.788;2023-08-20T01:47:07;33.23;;;31.33;;
908;SDS011;441;51.192;6.788;2023-08-20T01:49:34;32.30;;;30.13;;
908;SDS011;441;51.192;6.788;2023-08-20T01:52:01;34.67;;;32.63;;
908;SDS011;441;51.192;6.788;2023-08-20T01:54:29;32.40;;;30.40;;
908;SDS011;441;51.192;6.788;2023-08-20T01:56:55;31.10;;;29.40;;
908;SDS011;441;51.192;6.788;2023-08-20T01:59:22;32.97;;;30.97;;
908;SDS011;441;51.192;6.788;2023-08-20T02:01:49;31.77;;;29.90;;
908;SDS011;441;51.192;6.788;2023-08-20T02:04:17;32.40;;;30.37;;
908;SDS011;441;51.192;6.788;2023-08-20T02:06:44;33.47;;;31.57;;
908;SDS011;441;51.192;6.788;2023-08-20T02:09:11;31.27;;;29.47;;
908;SDS011;441;51.192;6.788;2023-08-20T02:11:38;32.40;;;30.60;;
908;SDS011;441;51.192;6.788;2023-08-20T02:14:05;33.27;;;31.27;;
908;SDS011;441;51.192;6.788;2023-08-20T02:16:32;33.60;;;31.60;;
908;SDS011;441;51.192;6.788;2023-08-20T02:18:59;32.77;;;30.77;;
908;SDS011;441;51.192;6.788;2023-08-20T02:21:28;33.60;;;31.70;;
908;SDS011;441;51.192;6.788;2023-08-20T02:23:55;32.40;;;30.37;;
908;SDS011;441;51.192;6.788;2023-08-20T02:26:22;33.43;;;31.53;;
908;SDS011;441;51.192;6.788;2023-08-20T02:28:49;32.90;;;30.30;;
908;SDS011;441;51.192;6.788;2023-08-20T02:31:15;33.40;;;31.33;;
908;SDS011;441;51.192;6.788;2023-08-20T02:33:42;33.00;;;31.00;;
908;SDS011;441;51.192;6.788;2023-08-20T02:36:09;34.30;;;31.90;;
908;SDS011;441;51.192;6.788;2023-08-20T02:38:37;34.37;;;31.93;;
908;SDS011;441;51.192;6.788;2023-08-20T02:41:04;31.93;;;29.90;;
908;SDS011;441;51.192;6.788;2023-08-20T02:43:31;34.47;;;32.23;;
908;SDS011;441;51.192;6.788;2023-08-20T02:45:58;33.20;;;30.57;;
908;SDS011;441;51.192;6.788;2023-08-20T02:48:25;33.27;;;31.27;;
908;SDS011;441;51.192;6.788;2023-08-20T02:50:52;33.17;;;30.93;;
908;SDS011;441;51.192;6.788;2023-08-20T02:53:19;32.80;;;30.90;;
908;SDS011;441;51.192;6.788;2023-08-20T02:55:48;33.77;;;31.63;;
908;SDS011;441;51.192;6.788;2023-08-20T02:58:15;30.47;;;28.63;;
908;SDS011;441;51.192;6.788;2023-08-20T03:00:42;31.63;;;29.63;;
908;SDS011;441;51.192;6.788;2023-08-20T03:03:10;33.23;;;31.20;;
908;SDS011;441;51.192;6.788;2023-08-20T03:05:37;33.23;;;30.87;;
908;SDS011;441;51.192;6.788;2023-08-20T03:08:04;34.93;;;32.57;;
908;SDS011;441;51.192;6.788;2023-08-20T03:10:32;34.47;;;32.37;;
908;SDS011;441;51.192;6.788;2023-08-20T03:13:00;33.63;;;31.43;;
908;SDS011;441;51.192;6.788;2023-08-20T03:15:28;32.87;;;30.80;;
908;SDS011;441;51.192;6.788;2023-08-20T03:17:55;30.87;;;29.07;;
908;SDS011;441;51.192;6.788;2023-08-20T03:20:22;31.90;;;29.90;;
908;SDS011;441;51.192;6.788;2023-08-20T03:22:49;30.33;;;28.53;;
908;SDS011;441;51.192;6.788;2023-08-20T03:25:16;31.13;;;29.33;;
908;SDS011;441;51.192;6.788;2023-08-20T03:27:43;33.47;;;31.47;;
908;SDS011;441;51.192;6.788;2023-08-20T03:30:11;34.27;;;31.57;;
908;SDS011;441;51.192;6.788;2023-08-20T03:32:38;31.90;;;30.10;;
908;SDS011;441;51.192;6.788;2023-08-20T03:35:06;31.83;;;30.03;;
908;SDS011;441;51.192;6.788;2023-08-20T03:37:33;31.00;;;29.10;;
908;SDS011;441;51.192;6.788;2023-08-20T03:40:00;32.27;;;30.47;;
908;SDS011;441;51.192;6.788;2023-08-20T03:42:27;32.30;;;30.40;;
908;SDS011;441;51.192;6.788;2023-08-20T03:44:53;32.03;;;30.13;;
908;SDS011;441;51.192;6.788;2023-08-20T03:47:22;31.40;;;29.40;;
908;SDS011;441;51.192;6.788;2023-08-20T03:49:49;31.00;;;29.20;;
908;SDS011;441;51.192;6.788;2023-08-20T03:52:16;31.03;;;29.10;;
908;SDS011;441;51.192;6.788;2023-08-20T03:54:43;31.93;;;30.07;;
908;SDS011;441;51.192;6.788;2023-08-20T03:57:10;31.53;;;29.60;;
908;SDS011;441;51.192;6.788;2023-08-20T03:59:37;33.60;;;31.50;;
908;SDS011;441;51.192;6.788;2023-08-20T04:02:04;31.80;;;30.00;;
908;SDS011;441;51.192;6.788;2023-08-20T04:04:32;33.33;;;31.43;;
908;SDS011;441;51.192;6.788;2023-08-20T04:06:59;33.93;;;31.60;;
908;SDS011;441;51.192;6.788;2023-08-20T04:09:26;33.23;;;31.20;;
908;SDS011;441;51.192;6.788;2023-08-20T04:11:53;33.87;;;31.67;;
908;SDS011;441;51.192;6.788;2023-08-20T04:14:20;34.83;;;32.93;;
908;SDS011;441;51.192;6.788;2023-08-20T04:16:47;32.87;;;30.97;;
908;SDS011;441;51.192;6.788;2023-08-20T04:19:14;33.23;;;31.40;;
908;SDS011;441;51.192;6.788;2023-08-20T04:21:42;33.37;;;31.47;;
908;SDS011;441;51.192;6.788;2023-08-20T04:24:09;32.50;;;30.60;;
908;SDS011;441;51.192;6.788;2023-08-20T04:26:36;32.57;;;30.87;;
908;SDS011;441;51.192;6.788;2023-08-20T04:29:03;31.93;;;30.10;;
908;SDS011;441;51.192;6.788;2023-08-20T04:31:30;33.83;;;31.57;;
908;SDS011;441;51.192;6.788;2023-08-20T04:33:57;32.47;;;30.73;;
908;SDS011;441;51.192;6.788;2023-08-20T04:36:24;36.77;;;34.97;;
908;SDS011;441;51.192;6.788;2023-08-20T04:38:52;36.90;;;34.80;;
908;SDS011;441;51.192;6.788;2023-08-20T04:41:19;36.80;;;34.80;;
908;SDS011;441;51.192;6.788;2023-08-20T04:43:46;38.73;;;36.67;;
908;SDS011;441;51.192;6.788;2023-08-20T04:46:14;35.97;;;34.30;;
908;SDS011;441;51.192;6.788;2023-08-20T04:48:42;38.03;;;36.03;;
908;SDS011;441;51.192;6.788;2023-08-20T04:51:09;39.00;;;37.03;;
908;SDS011;441;51.192;6.788;2023-08-20T04:53:37;36.83;;;35.13;;
908;SDS011;441;51.192;6.788;2023-08-20T04:56:09;36.43;;;34.53;;
908;SDS011;441;51.192;6.788;2023-08-20T04:58:38;37.70;;;35.90;;
908;SDS011;441;51.192;6.788;2023-08-20T05:01:06;37.67;;;35.63;;
908;SDS011;441;51.192;6.788;2023-08-20T05:03:35;36.37;;;34.67;;
908;SDS011;441;51.192;6.788;2023-08-20T05:06:02;37.20;;;35.40;;
908;SDS011;441;51.192;6.788;2023-08-20T05:08:31;38.13;;;36.27;;
908;SDS011;441;51.192;6.788;2023-08-20T05:11:03;38.83;;;36.87;;
908;SDS011;441;51.192;6.788;2023-08-20T05:13:32;38.23;;;36.43;;
908;SDS011;441;51.192;6.788;2023-08-20T05:16:00;37.00;;;35.30;;
908;SDS011;441;51.192;6.788;2023-08-20T05:18:40;37.50;;;35.20;;
908;SDS011;441;51.192;6.788;2023-08-20T05:21:16;39.17;;;37.27;;
908;SDS011;441;51.192;6.788;2023-08-20T05:23:43;37.53;;;35.83;;
908;SDS011;441;51.192;6.788;2023-08-20T05:26:12;38.57;;;36.57;;
908;SDS011;441;51.192;6.788;2023-08-20T05:28:41;38.80;;;36.80;;
908;SDS011;441;51.192;6.788;2023-08-20T05:31:10;40.80;;;38.50;;
908;SDS011;441;51.192;6.788;2023-08-20T05:33:42;39.80;;;37.80;;
908;SDS011;441;51.192;6.788;2023-08-20T05:36:10;39.10;;;37.10;;
908;SDS011;441;51.192;6.788;2023-08-20T05:38:38;38.40;;;36.43;;
908;SDS011;441;51.192;6.788;2023-08-20T05:41:07;41.70;;;39.80;;
908;SDS011;441;51.192;6.788;2023-08-20T05:43:38;38.77;;;37.07;;
908;SDS011;441;51.192;6.788;2023-08-20T05:46:07;39.80;;;37.77;;
908;SDS011;441;51.192;6.788;2023-08-20T05:48:34;40.60;;;38.63;;
908;SDS011;441;51.192;6.788;2023-08-20T05:51:04;41.43;;;39.53;;
908;SDS011;441;51.192;6.788;2023-08-20T05:53:32;40.17;;;38.27;;
908;SDS011;441;51.192;6.788;2023-08-20T05:56:03;42.07;;;40.07;;
908;SDS011;441;51.192;6.788;2023-08-20T05:58:31;41.60;;;39.50;;
908;SDS011;441;51.192;6.788;2023-08-20T06:01:00;42.60;;;40.40;;
908;SDS011;441;51.192;6.788;2023-08-20T06:03:29;43.93;;;41.73;;
908;SDS011;441;51.192;6.788;2023-08-20T06:05:59;42.90;;;40.80;;
908;SDS011;441;51.192;6.788;2023-08-20T06:08:29;41.03;;;39.03;;
908;SDS011;441;51.192;6.788;2023-08-20T06:10:57;43.30;;;41.10;;
908;SDS011;441;51.192;6.788;2023-08-20T06:13:27;42.57;;;40.47;;
908;SDS011;441;51.192;6.788;2023-08-20T06:15:55;45.23;;;42.83;;
908;SDS011;441;51.192;6.788;2023-08-20T06:18:22;46.97;;;44.07;;
908;SDS011;441;51.192;6.788;2023-08-20T06:20:53;43.13;;;40.60;;
908;SDS011;441;51.192;6.788;2023-08-20T06:23:21;43.27;;;41.00;;
908;SDS011;441;51.192;6.788;2023-08-20T06:25:50;43.73;;;41.30;;
908;SDS011;441;51.192;6.788;2023-08-20T06:28:19;42.50;;;40.30;;
908;SDS011;441;51.192;6.788;2023-08-20T06:30:47;42.57;;;40.57;;
908;SDS011;441;51.192;6.788;2023-08-20T06:33:18;45.97;;;43.80;;
908;SDS011;441;51.192;6.788;2023-08-20T06:35:46;41.87;;;39.77;;
908;SDS011;441;51.192;6.788;2023-08-20T06:38:17;42.97;;;40.57;;
908;SDS011;441;51.192;6.788;2023-08-20T06:40:46;42.83;;;40.50;;
908;SDS011;441;51.192;6.788;2023-08-20T06:43:15;41.10;;;39.03;;
908;SDS011;441;51.192;6.788;2023-08-20T06:45:42;43.77;;;41.60;;
908;SDS011;441;51.192;6.788;2023-08-20T06:48:12;43.00;;;40.67;;
908;SDS011;441;51.192;6.788;2023-08-20T06:50:45;45.07;;;42.77;;
908;SDS011;441;51.192;6.788;2023-08-20T06:53:12;41.87;;;39.90;;
908;SDS011;441;51.192;6.788;2023-08-20T06:55:43;43.20;;;41.10;;
908;SDS011;441;51.192;6.788;2023-08-20T06:58:14;44.50;;;42.17;;
908;SDS011;441;51.192;6.788;2023-08-20T07:00:50;43.20;;;41.10;;
908;SDS011;441;51.192;6.788;2023-08-20T07:03:32;42.20;;;40.30;;
908;SDS011;441;51.192;6.788;2023-08-20T07:05:59;41.20;;;39.10;;
908;SDS011;441;51.192;6.788;2023-08-20T07:08:26;45.47;;;43.27;;
908;SDS011;441;51.192;6.788;2023-08-20T07:10:55;45.47;;;43.27;;
908;SDS011;441;51.192;6.788;2023-08-20T07:13:22;43.57;;;41.57;;
908;SDS011;441;51.192;6.788;2023-08-20T07:15:49;45.33;;;42.93;;
908;SDS011;441;51.192;6.788;2023-08-20T07:18:16;44.93;;;42.50;;
908;SDS011;441;51.192;6.788;2023-08-20T07:20:43;43.53;;;40.70;;
908;SDS011;441;51.192;6.788;2023-08-20T07:23:10;44.00;;;41.70;;
908;SDS011;441;51.192;6.788;2023-08-20T07:25:37;42.63;;;40.40;;
908;SDS011;441;51.192;6.788;2023-08-20T07:28:07;45.67;;;43.33;;
908;SDS011;441;51.192;6.788;2023-08-20T07:30:34;41.20;;;39.10;;
908;SDS011;441;51.192;6.788;2023-08-20T07:33:01;42.30;;;39.80;;
908;SDS011;441;51.192;6.788;2023-08-20T07:35:29;44.40;;;42.30;;
908;SDS011;441;51.192;6.788;2023-08-20T07:37:56;43.43;;;41.33;;
908;SDS011;441;51.192;6.788;2023-08-20T07:40:23;42.70;;;40.50;;
908;SDS011;441;51.192;6.788;2023-08-20T07:42:50;42.80;;;40.63;;
908;SDS011;441;51.192;6.788;2023-08-20T07:45:19;43.40;;;41.20;;
908;SDS011;441;51.192;6.788;2023-08-20T07:47:46;46.43;;;44.00;;
908;SDS011;441;51.192;6.788;2023-08-20T07:50:12;45.77;;;42.83;;
908;SDS011;441;51.192;6.788;2023-08-20T07:52:39;46.80;;;44.17;;
908;SDS011;441;51.192;6.788;2023-08-20T07:55:07;45.93;;;43.50;;
908;SDS011;441;51.192;6.788;2023-08-20T07:57:34;45.80;;;43.40;;
908;SDS011;441;51.192;6.788;2023-08-20T08:00:03;45.53;;;43.27;;
908;SDS011;441;51.192;6.788;2023-08-20T08:02:33;45.83;;;43.37;;
908;SDS011;441;51.192;6.788;2023-08-20T08:05:06;46.63;;;44.30;;
908;SDS011;441;51.192;6.788;2023-08-20T08:07:39;47.63;;;45.23;;
908;SDS011;441;51.192;6.788;2023-08-20T08:10:17;44.53;;;42.40;;
908;SDS011;441;51.192;6.788;2023-08-20T08:12:47;45.17;;;42.80;;
908;SDS011;441;51.192;6.788;2023-08-20T08:15:18;44.70;;;42.33;;
908;SDS011;441;51.192;6.788;2023-08-20T08:17:47;48.07;;;45.47;;
908;SDS011;441;51.192;6.788;2023-08-20T08:20:15;45.80;;;43.50;;
908;SDS011;441;51.192;6.788;2023-08-20T08:22:43;45.23;;;42.90;;
908;SDS011;441;51.192;6.788;2023-08-20T08:25:16;47.23;;;44.53;;
908;SDS011;441;51.192;6.788;2023-08-20T08:27:48;44.63;;;42.33;;
908;SDS011;441;51.192;6.788;2023-08-20T08:30:22;48.40;;;45.93;;
908;SDS011;441;51.192;6.788;2023-08-20T08:32:52;45.53;;;43.23;;
908;SDS011;441;51.192;6.788;2023-08-20T08:35:20;45.50;;;43.20;;
908;SDS011;441;51.192;6.788;2023-08-20T08:37:48;50.63;;;47.83;;
908;SDS011;441;51.192;6.788;2023-08-20T08:40:19;49.40;;;46.90;;
908;SDS011;441;51.192;6.788;2023-08-20T08:42:46;47.47;;;44.60;;
908;SDS011;441;51.192;6.788;2023-08-20T08:45:16;47.97;;;45.63;;
908;SDS011;441;51.192;6.788;2023-08-20T08:47:45;46.43;;;44.20;;
908;SDS011;441;51.192;6.788;2023-08-20T08:50:14;48.73;;;46.13;;
908;SDS011;441;51.192;6.788;2023-08-20T08:52:41;48.77;;;46.27;;
908;SDS011;441;51.192;6.788;2023-08-20T08:55:11;45.80;;;43.60;;
908;SDS011;441;51.192;6.788;2023-08-20T08:57:38;46.97;;;44.57;;
908;SDS011;441;51.192;6.788;2023-08-20T09:00:05;44.87;;;42.67;;
908;SDS011;441;51.192;6.788;2023-08-20T09:02:33;45.80;;;43.60;;
908;SDS011;441;51.192;6.788;2023-08-20T09:05:00;45.20;;;43.00;;
908;SDS011;441;51.192;6.788;2023-08-20T09:07:28;46.57;;;44.40;;
908;SDS011;441;51.192;6.788;2023-08-20T09:09:57;47.13;;;44.93;;
908;SDS011;441;51.192;6.788;2023-08-20T09:12:25;45.27;;;43.17;;
908;SDS011;441;51.192;6.788;2023-08-20T09:14:53;45.47;;;43.27;;
908;SDS011;441;51.192;6.788;2023-08-20T09:17:24;42.60;;;40.80;;
908;SDS011;441;51.192;6.788;2023-08-20T09:19:52;40.60;;;38.90;;
908;SDS011;441;51.192;6.788;2023-08-20T09:22:22;44.00;;;42.20;;
908;SDS011;441;51.192;6.788;2023-08-20T09:24:54;49.23;;;47.33;;
908;SDS011;441;51.192;6.788;2023-08-20T09:27:22;44.50;;;42.70;;
908;SDS011;441;51.192;6.788;2023-08-20T09:29:49;45.70;;;43.97;;
908;SDS011;441;51.192;6.788;2023-08-20T09:32:18;44.57;;;42.97;;
908;SDS011;441;51.192;6.788;2023-08-20T09:34:47;44.40;;;42.70;;
908;SDS011;441;51.192;6.788;2023-08-20T09:37:15;44.50;;;42.90;;
908;SDS011;441;51.192;6.788;2023-08-20T09:39:42;44.87;;;43.27;;
908;SDS011;441;51.192;6.788;2023-08-20T09:42:11;46.73;;;45.00;;
908;SDS011;441;51.192;6.788;2023-08-20T09:44:39;45.87;;;44.17;;
908;SDS011;441;51.192;6.788;2023-08-20T09:47:07;47.23;;;45.43;;
908;SDS011;441;51.192;6.788;2023-08-20T09:49:36;43.40;;;41.70;;
908;SDS011;441;51.192;6.788;2023-08-20T09:52:05;44.37;;;42.77;;
908;SDS011;441;51.192;6.788;2023-08-20T09:54:49;46.23;;;44.50;;
908;SDS011;441;51.192;6.788;2023-08-20T09:57:28;50.30;;;48.40;;
908;SDS011;441;51.192;6.788;2023-08-20T09:59:59;46.23;;;44.53;;
908;SDS011;441;51.192;6.788;2023-08-20T10:02:27;46.23;;;44.63;;
908;SDS011;441;51.192;6.788;2023-08-20T10:04:55;45.30;;;43.70;;
908;SDS011;441;51.192;6.788;2023-08-20T10:07:22;48.20;;;45.80;;
908;SDS011;441;51.192;6.788;2023-08-20T10:09:51;44.73;;;43.13;;
908;SDS011;441;51.192;6.788;2023-08-20T10:12:18;46.50;;;44.63;;
908;SDS011;441;51.192;6.788;2023-08-20T10:14:47;45.43;;;43.83;;
908;SDS011;441;51.192;6.788;2023-08-20T10:17:14;46.60;;;44.80;;
908;SDS011;441;51.192;6.788;2023-08-20T10:19:41;48.40;;;46.50;;
908;SDS011;441;51.192;6.788;2023-08-20T10:22:08;47.07;;;45.17;;
908;SDS011;441;51.192;6.788;2023-08-20T10:24:47;45.30;;;43.60;;
908;SDS011;441;51.192;6.788;2023-08-20T10:27:23;45.43;;;43.73;;
908;SDS011;441;51.192;6.788;2023-08-20T10:29:53;46.17;;;44.47;;
908;SDS011;441;51.192;6.788;2023-08-20T10:32:20;45.20;;;43.50;;
908;SDS011;441;51.192;6.788;2023-08-20T10:35:12;46.33;;;44.53;;
908;SDS011;441;51.192;6.788;2023-08-20T10:37:49;47.43;;;45.43;;
908;SDS011;441;51.192;6.788;2023-08-20T10:43:23;49.37;;;47.57;;
908;SDS011;441;51.192;6.788;2023-08-20T10:46:04;45.73;;;43.83;;
908;SDS011;441;51.192;6.788;2023-08-20T10:48:33;51.40;;;49.20;;
908;SDS011;441;51.192;6.788;2023-08-20T10:51:11;50.37;;;48.00;;
908;SDS011;441;51.192;6.788;2023-08-20T10:53:39;48.30;;;46.30;;
908;SDS011;441;51.192;6.788;2023-08-20T10:56:14;47.97;;;45.97;;
908;SDS011;441;51.192;6.788;2023-08-20T10:58:41;50.10;;;48.13;;
908;SDS011;441;51.192;6.788;2023-08-20T11:01:24;47.60;;;45.40;;
908;SDS011;441;51.192;6.788;2023-08-20T11:03:51;48.33;;;46.53;;
908;SDS011;441;51.192;6.788;2023-08-20T11:06:19;49.17;;;46.77;;
908;SDS011;441;51.192;6.788;2023-08-20T11:08:46;50.93;;;48.97;;
908;SDS011;441;51.192;6.788;2023-08-20T11:11:12;47.17;;;45.27;;
908;SDS011;441;51.192;6.788;2023-08-20T11:13:39;50.97;;;49.07;;
908;SDS011;441;51.192;6.788;2023-08-20T11:16:08;50.77;;;48.77;;
908;SDS011;441;51.192;6.788;2023-08-20T11:18:37;50.80;;;48.73;;
908;SDS011;441;51.192;6.788;2023-08-20T11:21:03;50.63;;;48.67;;
908;SDS011;441;51.192;6.788;2023-08-20T11:23:29;51.97;;;49.73;;
908;SDS011;441;51.192;6.788;2023-08-20T11:25:57;46.10;;;44.20;;
908;SDS011;441;51.192;6.788;2023-08-20T11:28:27;48.87;;;46.97;;
908;SDS011;441;51.192;6.788;2023-08-20T11:30:54;45.27;;;43.53;;
908;SDS011;441;51.192;6.788;2023-08-20T11:33:22;43.70;;;41.67;;
908;SDS011;441;51.192;6.788;2023-08-20T11:35:52;43.07;;;41.23;;
908;SDS011;441;51.192;6.788;2023-08-20T11:38:20;45.03;;;43.23;;
908;SDS011;441;51.192;6.788;2023-08-20T11:41:03;43.37;;;41.57;;
908;SDS011;441;51.192;6.788;2023-08-20T11:43:33;44.80;;;42.63;;
908;SDS011;441;51.192;6.788;2023-08-20T11:46:03;45.63;;;43.83;;
908;SDS011;441;51.192;6.788;2023-08-20T11:48:31;45.20;;;43.40;;
908;SDS011;441;51.192;6.788;2023-08-20T11:51:04;46.67;;;44.67;;
908;SDS011;441;51.192;6.788;2023-08-20T11:53:32;47.60;;;45.60;;
908;SDS011;441;51.192;6.788;2023-08-20T11:56:06;45.87;;;43.80;;
908;SDS011;441;51.192;6.788;2023-08-20T11:58:39;45.80;;;43.37;;
908;SDS011;441;51.192;6.788;2023-08-20T12:01:07;47.07;;;44.97;;
908;SDS011;441;51.192;6.788;2023-08-20T12:03:38;44.40;;;42.60;;
908;SDS011;441;51.192;6.788;2023-08-20T12:06:18;44.90;;;42.93;;
908;SDS011;441;51.192;6.788;2023-08-20T12:08:47;46.70;;;44.37;;
908;SDS011;441;51.192;6.788;2023-08-20T12:11:16;46.90;;;44.60;;
908;SDS011;441;51.192;6.788;2023-08-20T12:13:48;46.43;;;44.53;;
908;SDS011;441;51.192;6.788;2023-08-20T12:16:23;45.07;;;42.77;;
908;SDS011;441;51.192;6.788;2023-08-20T12:18:51;43.73;;;41.87;;
908;SDS011;441;51.192;6.788;2023-08-20T12:21:22;43.37;;;41.53;;
908;SDS011;441;51.192;6.788;2023-08-20T12:23:49;45.57;;;43.67;;
908;SDS011;441;51.192;6.788;2023-08-20T12:26:17;44.93;;;43.13;;
908;SDS011;441;51.192;6.788;2023-08-20T12:28:44;46.73;;;44.67;;
908;SDS011;441;51.192;6.788;2023-08-20T12:31:12;46.33;;;44.27;;
908;SDS011;441;51.192;6.788;2023-08-20T12:33:40;47.50;;;45.20;;
908;SDS011;441;51.192;6.788;2023-08-20T12:36:11;49.50;;;47.20;;
908;SDS011;441;51.192;6.788;2023-08-20T12:38:43;50.13;;;47.93;;
908;SDS011;441;51.192;6.788;2023-08-20T12:41:14;50.03;;;47.90;;
908;SDS011;441;51.192;6.788;2023-08-20T12:43:42;45.83;;;43.63;;
908;SDS011;441;51.192;6.788;2023-08-20T12:46:10;46.73;;;44.73;;
908;SDS011;441;51.192;6.788;2023-08-20T12:48:42;45.90;;;43.87;;
908;SDS011;441;51.192;6.788;2023-08-20T12:51:12;45.57;;;43.77;;
908;SDS011;441;51.192;6.788;2023-08-20T12:53:49;45.20;;;43.00;;
908;SDS011;441;51.192;6.788;2023-08-20T12:56:19;43.10;;;41.30;;
908;SDS011;441;51.192;6.788;2023-08-20T12:58:46;44.10;;;42.20;;
908;SDS011;441;51.192;6.788;2023-08-20T13:01:14;43.70;;;42.00;;
908;SDS011;441;51.192;6.788;2023-08-20T13:03:47;46.37;;;44.23;;
908;SDS011;441;51.192;6.788;2023-08-20T13:06:18;46.27;;;44.37;;
908;SDS011;441;51.192;6.788;2023-08-20T13:08:49;47.27;;;45.17;;
908;SDS011;441;51.192;6.788;2023-08-20T13:11:21;45.63;;;43.70;;
908;SDS011;441;51.192;6.788;2023-08-20T13:13:56;45.17;;;43.17;;
908;SDS011;441;51.192;6.788;2023-08-20T13:16:25;47.23;;;45.17;;
908;SDS011;441;51.192;6.788;2023-08-20T13:18:55;42.93;;;41.13;;
908;SDS011;441;51.192;6.788;2023-08-20T13:21:25;45.23;;;43.33;;
908;SDS011;441;51.192;6.788;2023-08-20T13:24:04;44.17;;;42.27;;
908;SDS011;441;51.192;6.788;2023-08-20T13:26:34;41.67;;;39.93;;
908;SDS011;441;51.192;6.788;2023-08-20T13:29:03;44.13;;;42.37;;
908;SDS011;441;51.192;6.788;2023-08-20T13:31:30;42.47;;;40.77;;
908;SDS011;441;51.192;6.788;2023-08-20T13:34:01;46.83;;;44.93;;
908;SDS011;441;51.192;6.788;2023-08-20T13:36:31;47.90;;;46.00;;
908;SDS011;441;51.192;6.788;2023-08-20T13:39:08;45.87;;;44.00;;
908;SDS011;441;51.192;6.788;2023-08-20T13:41:40;45.97;;;44.17;;
908;SDS011;441;51.192;6.788;2023-08-20T13:44:09;48.37;;;46.33;;
908;SDS011;441;51.192;6.788;2023-08-20T13:46:39;45.07;;;43.27;;
908;SDS011;441;51.192;6.788;2023-08-20T13:49:09;41.07;;;39.37;;
908;SDS011;441;51.192;6.788;2023-08-20T13:51:39;46.20;;;44.30;;
908;SDS011;441;51.192;6.788;2023-08-20T13:54:09;48.00;;;46.00;;
908;SDS011;441;51.192;6.788;2023-08-20T13:56:38;49.10;;;47.17;;
908;SDS011;441;51.192;6.788;2023-08-20T13:59:09;44.23;;;42.53;;
908;SDS011;441;51.192;6.788;2023-08-20T14:01:36;47.30;;;45.30;;
908;SDS011;441;51.192;6.788;2023-08-20T14:04:08;46.20;;;44.30;;
908;SDS011;441;51.192;6.788;2023-08-20T14:06:37;45.63;;;43.53;;
908;SDS011;441;51.192;6.788;2023-08-20T14:09:05;42.53;;;40.73;;
908;SDS011;441;51.192;6.788;2023-08-20T14:11:38;48.03;;;45.90;;
908;SDS011;441;51.192;6.788;2023-08-20T14:14:08;48.43;;;46.13;;
908;SDS011;441;51.192;6.788;2023-08-20T14:16:37;47.47;;;45.57;;
908;SDS011;441;51.192;6.788;2023-08-20T14:19:05;50.70;;;48.60;;
908;SDS011;441;51.192;6.788;2023-08-20T14:21:35;48.00;;;46.00;;
908;SDS011;441;51.192;6.788;2023-08-20T14:24:08;47.37;;;45.27;;
908;SDS011;441;51.192;6.788;2023-08-20T14:26:40;48.87;;;46.87;;
908;SDS011;441;51.192;6.788;2023-08-20T14:29:12;49.00;;;46.97;;
908;SDS011;441;51.192;6.788;2023-08-20T14:31:40;46.23;;;44.33;;
908;SDS011;441;51.192;6.788;2023-08-20T14:34:07;49.97;;;47.93;;
908;SDS011;441;51.192;6.788;2023-08-20T14:36:37;49.87;;;47.87;;
908;SDS011;441;51.192;6.788;2023-08-20T14:39:20;50.87;;;48.77;;
908;SDS011;441;51.192;6.788;2023-08-20T14:41:50;48.87;;;46.87;;
908;SDS011;441;51.192;6.788;2023-08-20T14:44:20;50.73;;;48.50;;
908;SDS011;441;51.192;6.788;2023-08-20T14:46:50;45.73;;;43.63;;
908;SDS011;441;51.192;6.788;2023-08-20T14:49:18;45.03;;;43.23;;
908;SDS011;441;51.192;6.788;2023-08-20T14:51:45;44.20;;;42.37;;
908;SDS011;441;51.192;6.788;2023-08-20T14:54:18;48.57;;;46.67;;
908;SDS011;441;51.192;6.788;2023-08-20T14:56:45;46.30;;;44.40;;
908;SDS011;441;51.192;6.788;2023-08-20T14:59:17;45.40;;;43.70;;
908;SDS011;441;51.192;6.788;2023-08-20T15:01:49;45.73;;;44.00;;
908;SDS011;441;51.192;6.788;2023-08-20T15:04:19;45.73;;;43.80;;
908;SDS011;441;51.192;6.788;2023-08-20T15:06:49;44.60;;;42.70;;
908;SDS011;441;51.192;6.788;2023-08-20T15:09:23;44.27;;;42.57;;
908;SDS011;441;51.192;6.788;2023-08-20T15:11:59;51.67;;;49.67;;
908;SDS011;441;51.192;6.788;2023-08-20T15:14:32;49.43;;;47.63;;
908;SDS011;441;51.192;6.788;2023-08-20T15:17:06;51.20;;;49.40;;
908;SDS011;441;51.192;6.788;2023-08-20T15:19:37;46.97;;;45.07;;
908;SDS011;441;51.192;6.788;2023-08-20T15:22:18;43.47;;;41.67;;
908;SDS011;441;51.192;6.788;2023-08-20T15:24:45;46.33;;;44.57;;
908;SDS011;441;51.192;6.788;2023-08-20T15:27:16;47.00;;;45.10;;
908;SDS011;441;51.192;6.788;2023-08-20T15:29:46;42.80;;;41.00;;